createdAt,value
2022-09-21T00:00:02.625Z,76
2022-09-21T00:20:02.408Z,76
2022-09-21T00:40:03.078Z,75
2022-09-21T01:00:02.615Z,75
2022-09-21T01:20:03.438Z,75
2022-09-21T01:40:03.039Z,76
2022-09-21T02:00:02.377Z,76
2022-09-21T02:20:02.939Z,76
2022-09-21T02:40:02.465Z,76
2022-09-21T03:00:03.029Z,75
2022-09-21T03:20:03.279Z,76
2022-09-21T03:40:02.730Z,76
2022-09-21T04:00:03.315Z,76
2022-09-21T04:20:02.888Z,77
2022-09-21T04:40:02.525Z,76
2022-09-21T05:00:02.909Z,76
2022-09-21T05:20:02.484Z,76
2022-09-21T05:40:02.926Z,76
2022-09-21T06:00:02.355Z,76
2022-09-21T06:20:03.209Z,77
2022-09-21T06:40:02.629Z,77
2022-09-21T07:00:02.993Z,79
2022-09-21T07:20:02.683Z,80
2022-09-21T07:40:03.492Z,80
2022-09-21T08:00:02.958Z,81
2022-09-21T08:20:02.713Z,81
2022-09-21T08:40:03.488Z,80
2022-09-21T09:00:03.280Z,79
2022-09-21T09:20:02.941Z,78
2022-09-21T09:40:02.525Z,73
2022-09-21T10:00:02.844Z,68
2022-09-21T10:20:03.438Z,63
2022-09-21T10:40:04.278Z,57
2022-09-21T11:00:03.096Z,53
2022-09-21T11:20:04.185Z,52
2022-09-21T11:40:02.880Z,52
2022-09-21T12:00:02.244Z,54
2022-09-21T12:20:03.062Z,51
2022-09-21T12:40:02.656Z,52
2022-09-21T13:00:03.311Z,52
2022-09-21T13:20:03.055Z,52
2022-09-21T13:40:02.718Z,53
2022-09-21T14:00:03.239Z,53
2022-09-21T14:20:02.929Z,53
2022-09-21T14:40:02.622Z,54
2022-09-21T15:00:03.079Z,54
2022-09-21T15:20:02.683Z,54
2022-09-21T15:40:03.744Z,52
2022-09-21T16:00:03.331Z,54
2022-09-21T16:20:03.379Z,55
2022-09-21T16:40:03.301Z,55
2022-09-21T17:00:02.988Z,56
2022-09-21T17:20:02.558Z,58
2022-09-21T17:40:10.597Z,59
2022-09-21T18:00:02.957Z,61
2022-09-21T18:20:02.678Z,62
2022-09-21T18:40:03.207Z,63
2022-09-21T19:00:02.824Z,64
2022-09-21T19:20:02.497Z,65
2022-09-21T19:40:03.149Z,66
2022-09-21T20:00:02.564Z,66
2022-09-21T20:20:02.688Z,67
2022-09-21T20:40:03.248Z,67
2022-09-21T21:00:02.908Z,69
2022-09-21T21:20:02.495Z,69
2022-09-21T21:40:03.307Z,70
2022-09-21T22:00:02.996Z,71
2022-09-21T22:20:02.855Z,71
2022-09-21T22:40:03.555Z,71
2022-09-21T23:00:03.107Z,72
2022-09-21T23:20:02.712Z,73
2022-09-21T23:40:03.211Z,73
